createdAt,value
2018-12-17T00:02:05.605Z,94.07
2018-12-17T00:04:33.727Z,96.73
2018-12-17T00:07:01.807Z,85.97
2018-12-17T00:09:29.991Z,91.30
2018-12-17T00:11:58.117Z,90.10
2018-12-17T00:14:26.250Z,91.20
2018-12-17T00:16:54.385Z,94.47
2018-12-17T00:19:22.476Z,88.60
2018-12-17T00:21:51.279Z,91.10
2018-12-17T00:24:19.410Z,81.97
2018-12-17T00:26:47.500Z,87.97
2018-12-17T00:29:15.809Z,84.37
2018-12-17T00:31:43.885Z,84.43
2018-12-17T00:34:11.971Z,80.20
2018-12-17T00:36:40.100Z,83.63
2018-12-17T00:39:08.275Z,93.73
2018-12-17T00:41:37.459Z,94.52
2018-12-17T00:44:05.740Z,96.50
2018-12-17T00:46:34.363Z,108.20
2018-12-17T00:49:02.458Z,99.37
2018-12-17T00:51:30.554Z,96.80
2018-12-17T00:53:58.654Z,95.70
2018-12-17T00:56:26.797Z,79.37
2018-12-17T00:58:54.950Z,91.23
2018-12-17T01:01:23.150Z,86.50
2018-12-17T01:03:52.583Z,110.22
2018-12-17T01:06:20.720Z,91.50
2018-12-17T01:08:49.234Z,119.07
2018-12-17T01:11:17.328Z,119.83
2018-12-17T01:13:45.430Z,123.25
2018-12-17T01:16:13.533Z,145.80
2018-12-17T01:18:41.622Z,157.07
2018-12-17T01:21:09.755Z,140.93
2018-12-17T01:23:38.017Z,163.43
2018-12-17T01:26:06.181Z,140.63
2018-12-17T01:28:34.966Z,139.13
2018-12-17T01:31:03.096Z,117.37
2018-12-17T01:33:31.192Z,111.42
2018-12-17T01:35:59.358Z,126.97
2018-12-17T01:38:27.452Z,120.73
2018-12-17T01:40:56.746Z,115.03
2018-12-17T01:43:24.888Z,127.90
2018-12-17T01:45:52.987Z,116.20
2018-12-17T01:48:21.100Z,126.73
2018-12-17T01:50:50.225Z,134.37
2018-12-17T01:53:18.323Z,125.23
2018-12-17T01:55:46.773Z,127.67
2018-12-17T01:58:14.974Z,152.87
2018-12-17T02:00:43.140Z,133.60
2018-12-17T02:03:11.215Z,152.73
2018-12-17T02:05:40.451Z,152.95
2018-12-17T02:08:08.583Z,208.20
2018-12-17T02:10:36.771Z,220.10
2018-12-17T02:13:04.920Z,215.10
2018-12-17T02:15:33.736Z,183.40
2018-12-17T02:18:01.852Z,158.10
2018-12-17T02:20:29.973Z,142.13
2018-12-17T02:22:58.087Z,150.67
2018-12-17T02:25:26.178Z,167.67
2018-12-17T02:27:54.351Z,154.80
2018-12-17T02:30:22.469Z,178.80
2018-12-17T02:32:50.592Z,163.63
2018-12-17T02:35:18.680Z,159.23
2018-12-17T02:37:46.775Z,167.70
2018-12-17T02:40:15.366Z,148.57
2018-12-17T02:42:43.944Z,168.03
2018-12-17T02:45:12.370Z,155.90
2018-12-17T02:47:40.462Z,140.35
2018-12-17T02:50:08.568Z,156.30
2018-12-17T02:52:36.655Z,133.73
2018-12-17T02:55:05.527Z,143.60
2018-12-17T02:57:33.666Z,141.70
2018-12-17T03:00:01.873Z,122.80
2018-12-17T03:02:30.929Z,131.52
2018-12-17T03:04:59.051Z,126.17
2018-12-17T03:07:27.355Z,129.23
2018-12-17T03:09:55.890Z,143.40
2018-12-17T03:12:24.343Z,130.50
2018-12-17T03:14:52.559Z,144.50
2018-12-17T03:17:20.667Z,146.17
2018-12-17T03:19:48.793Z,136.37
2018-12-17T03:22:16.916Z,139.03
2018-12-17T03:24:45.138Z,161.35
2018-12-17T03:27:13.295Z,134.93
2018-12-17T03:29:41.553Z,168.63
2018-12-17T03:32:09.690Z,173.70
2018-12-17T03:34:37.855Z,177.77
2018-12-17T03:37:05.963Z,309.27
2018-12-17T03:39:34.159Z,201.50
2018-12-17T03:42:02.244Z,174.47
2018-12-17T03:44:30.327Z,199.83
2018-12-17T03:46:58.521Z,162.10
2018-12-17T03:49:26.959Z,153.80
2018-12-17T03:51:56.576Z,170.45
2018-12-17T03:54:24.753Z,193.67
2018-12-17T03:56:52.927Z,171.47
2018-12-17T03:59:21.097Z,168.97
2018-12-17T04:01:49.301Z,243.60
2018-12-17T04:04:17.480Z,140.83
2018-12-17T04:06:45.624Z,146.13
2018-12-17T04:09:13.812Z,144.82
2018-12-17T04:11:41.902Z,140.83
2018-12-17T04:14:10.579Z,189.47
2018-12-17T04:16:39.569Z,156.90
2018-12-17T04:19:07.725Z,120.13
2018-12-17T04:21:36.715Z,140.90
2018-12-17T04:24:04.891Z,121.43
2018-12-17T04:26:33.003Z,121.77
2018-12-17T04:29:06.726Z,120.50
2018-12-17T04:31:31.193Z,106.17
2018-12-17T04:33:59.335Z,111.37
2018-12-17T04:36:27.428Z,225.50
2018-12-17T04:38:55.599Z,165.87
2018-12-17T04:41:23.765Z,168.20
2018-12-17T04:43:51.878Z,146.27
2018-12-17T04:46:20.056Z,184.60
2018-12-17T04:48:48.189Z,199.95
2018-12-17T04:51:16.493Z,137.97
2018-12-17T04:53:45.487Z,142.23
2018-12-17T04:56:13.644Z,187.87
2018-12-17T04:58:41.731Z,159.40
2018-12-17T05:01:09.929Z,118.70
2018-12-17T05:03:38.016Z,120.10
2018-12-17T05:06:06.148Z,147.17
2018-12-17T05:08:34.917Z,137.00
2018-12-17T05:11:03.051Z,119.55
2018-12-17T05:13:31.464Z,144.03
2018-12-17T05:16:00.451Z,152.60
2018-12-17T05:18:28.540Z,136.33
2018-12-17T05:20:56.652Z,140.63
2018-12-17T05:23:24.990Z,147.20
2018-12-17T05:25:53.140Z,137.23
2018-12-17T05:28:21.246Z,142.57
2018-12-17T05:30:49.359Z,164.27
2018-12-17T05:33:17.752Z,136.00
2018-12-17T05:35:45.941Z,146.70
2018-12-17T05:38:14.088Z,158.67
2018-12-17T05:40:42.196Z,163.33
2018-12-17T05:43:10.340Z,140.83
2018-12-17T05:45:38.477Z,132.22
2018-12-17T05:48:06.589Z,151.33
2018-12-17T05:50:35.257Z,158.40
2018-12-17T05:53:03.453Z,189.28
2018-12-17T05:55:31.618Z,184.50
2018-12-17T05:57:59.904Z,189.43
2018-12-17T06:00:28.198Z,154.37
2018-12-17T06:02:56.317Z,170.37
2018-12-17T06:05:24.518Z,162.03
2018-12-17T06:07:52.634Z,148.53
2018-12-17T06:10:20.786Z,167.67
2018-12-17T06:12:48.932Z,146.87
2018-12-17T06:15:17.134Z,153.20
2018-12-17T06:17:46.351Z,142.53
2018-12-17T06:20:15.108Z,134.23
2018-12-17T06:22:43.298Z,119.07
2018-12-17T06:25:11.381Z,122.62
2018-12-17T06:27:39.494Z,115.30
2018-12-17T06:30:07.674Z,110.23
2018-12-17T06:32:35.799Z,111.07
2018-12-17T06:35:04.296Z,118.28
2018-12-17T06:37:32.394Z,117.47
2018-12-17T06:40:00.520Z,121.90
2018-12-17T06:42:30.737Z,132.93
2018-12-17T06:44:58.830Z,122.40
2018-12-17T06:47:26.940Z,127.70
2018-12-17T06:49:56.266Z,126.97
2018-12-17T06:52:24.980Z,142.70
2018-12-17T06:54:54.924Z,168.37
2018-12-17T06:57:23.327Z,172.87
2018-12-17T06:59:51.443Z,169.73
2018-12-17T07:02:19.652Z,144.90
2018-12-17T07:04:48.403Z,147.73
2018-12-17T07:07:17.368Z,140.30
2018-12-17T07:09:45.478Z,164.57
2018-12-17T07:12:13.946Z,170.80
2018-12-17T07:14:42.402Z,146.20
2018-12-17T07:17:10.491Z,152.67
2018-12-17T07:19:38.587Z,148.80
2018-12-17T07:22:11.894Z,162.73
2018-12-17T07:24:40.045Z,166.10
2018-12-17T07:27:08.123Z,149.67
2018-12-17T07:29:36.240Z,127.10
2018-12-17T07:32:04.453Z,133.23
2018-12-17T07:34:33.966Z,138.07
2018-12-17T07:37:02.455Z,132.83
2018-12-17T07:39:32.247Z,128.63
2018-12-17T07:42:06.371Z,136.60
2018-12-17T07:44:35.671Z,137.03
2018-12-17T07:47:03.871Z,139.33
2018-12-17T07:49:31.950Z,141.47
2018-12-17T07:52:00.129Z,144.50
2018-12-17T07:54:29.478Z,143.27
2018-12-17T07:56:59.307Z,140.70
2018-12-17T07:59:28.115Z,120.02
2018-12-17T08:01:59.119Z,131.47
2018-12-17T08:04:27.407Z,127.43
2018-12-17T08:06:55.696Z,125.13
2018-12-17T08:09:24.453Z,112.73
2018-12-17T08:11:52.580Z,121.07
2018-12-17T08:14:20.687Z,121.43
2018-12-17T08:16:50.637Z,131.37
2018-12-17T08:19:21.964Z,130.77
2018-12-17T08:21:50.176Z,130.47
2018-12-17T08:24:18.267Z,123.62
2018-12-17T08:26:46.419Z,119.10
2018-12-17T08:29:14.586Z,128.43
2018-12-17T08:31:42.683Z,124.20
2018-12-17T08:34:10.779Z,128.70
2018-12-17T08:36:38.960Z,127.82
2018-12-17T08:39:13.217Z,116.83
2018-12-17T08:41:41.524Z,126.67
2018-12-17T08:44:10.698Z,116.47
2018-12-17T08:46:40.823Z,112.75
2018-12-17T08:49:08.933Z,117.93
2018-12-17T08:51:37.043Z,118.13
2018-12-17T08:54:05.243Z,132.83
2018-12-17T08:56:33.415Z,129.13
2018-12-17T08:59:01.524Z,110.77
2018-12-17T09:01:29.655Z,109.30
2018-12-17T09:03:57.735Z,119.40
2018-12-17T09:06:25.862Z,105.07
2018-12-17T09:08:54.539Z,102.47
2018-12-17T09:11:22.652Z,92.90
2018-12-17T09:13:53.573Z,128.32
2018-12-17T09:16:27.092Z,118.07
2018-12-17T09:18:55.410Z,113.60
2018-12-17T09:21:23.680Z,103.27
2018-12-17T09:23:51.767Z,111.37
2018-12-17T09:26:19.887Z,99.37
2018-12-17T09:28:47.984Z,108.60
2018-12-17T09:31:16.083Z,93.40
2018-12-17T09:33:45.123Z,103.80
2018-12-17T09:36:13.327Z,94.32
2018-12-17T09:38:41.495Z,109.67
2018-12-17T09:41:10.443Z,97.97
2018-12-17T09:43:39.035Z,97.37
2018-12-17T09:46:07.122Z,97.37
2018-12-17T09:48:35.403Z,99.60
2018-12-17T09:51:03.599Z,99.62
2018-12-17T09:53:31.687Z,91.03
2018-12-17T09:55:59.783Z,86.97
2018-12-17T09:58:28.038Z,87.47
2018-12-17T10:00:56.128Z,96.17
2018-12-17T10:03:24.822Z,97.33
2018-12-17T10:05:52.916Z,90.03
2018-12-17T10:08:21.788Z,89.90
2018-12-17T10:10:49.966Z,100.13
2018-12-17T10:13:18.076Z,92.83
2018-12-17T10:15:46.167Z,87.47
2018-12-17T10:18:14.799Z,92.37
2018-12-17T10:20:43.410Z,92.10
2018-12-17T10:23:12.069Z,92.53
2018-12-17T10:25:41.570Z,92.75
2018-12-17T10:28:10.228Z,91.70
2018-12-17T10:30:39.926Z,88.93
2018-12-17T10:33:08.017Z,85.55
2018-12-17T10:35:36.519Z,92.23
2018-12-17T10:38:06.716Z,82.13
2018-12-17T10:40:39.115Z,83.90
2018-12-17T10:43:07.244Z,98.52
2018-12-17T10:45:36.528Z,101.40
2018-12-17T10:48:04.674Z,94.40
2018-12-17T10:50:32.868Z,90.20
2018-12-17T10:53:01.099Z,94.73
2018-12-17T10:55:29.227Z,96.70
2018-12-17T10:57:58.048Z,91.87
2018-12-17T11:00:32.236Z,90.30
2018-12-17T11:03:05.023Z,90.43
2018-12-17T11:05:33.916Z,95.37
2018-12-17T11:08:02.107Z,85.50
2018-12-17T11:10:34.822Z,94.03
2018-12-17T11:13:02.991Z,88.00
2018-12-17T11:15:31.096Z,89.73
2018-12-17T11:17:59.183Z,91.60
2018-12-17T11:20:27.272Z,87.12
2018-12-17T11:22:56.471Z,96.43
2018-12-17T11:25:24.801Z,88.90
2018-12-17T11:27:52.959Z,89.50
2018-12-17T11:30:21.042Z,94.93
2018-12-17T11:32:49.134Z,86.87
2018-12-17T11:35:17.220Z,94.30
2018-12-17T11:37:45.392Z,91.03
2018-12-17T11:40:13.660Z,86.93
2018-12-17T11:42:41.963Z,85.57
2018-12-17T11:45:10.658Z,77.77
2018-12-17T11:47:40.454Z,76.20
2018-12-17T11:50:08.653Z,72.30
2018-12-17T11:52:38.971Z,63.90
2018-12-17T11:55:07.814Z,52.97
2018-12-17T11:58:11.731Z,50.83
2018-12-17T12:00:42.248Z,46.63
2018-12-17T12:03:10.351Z,52.10
2018-12-17T12:05:38.455Z,52.33
2018-12-17T12:08:06.537Z,47.43
2018-12-17T12:10:34.697Z,45.83
2018-12-17T12:13:02.818Z,43.58
2018-12-17T12:15:30.958Z,43.27
2018-12-17T12:17:59.095Z,42.47
2018-12-17T12:20:27.171Z,39.30
2018-12-17T12:22:55.716Z,41.27
2018-12-17T12:25:24.525Z,43.38
2018-12-17T12:27:52.635Z,45.60
2018-12-17T12:30:20.724Z,59.48
2018-12-17T12:32:52.147Z,58.57
2018-12-17T12:35:20.231Z,66.20
2018-12-17T12:37:48.322Z,69.17
2018-12-17T12:40:16.426Z,60.93
2018-12-17T12:42:51.330Z,61.03
2018-12-17T12:45:15.588Z,60.00
2018-12-17T12:47:43.751Z,52.83
2018-12-17T12:50:11.881Z,54.63
2018-12-17T12:52:40.003Z,59.73
2018-12-17T12:55:08.122Z,58.23
2018-12-17T12:57:36.916Z,55.23
2018-12-17T13:00:11.401Z,58.33
2018-12-17T13:02:39.567Z,58.67
2018-12-17T13:05:07.691Z,60.20
2018-12-17T13:07:35.861Z,59.03
2018-12-17T13:10:06.899Z,58.10
2018-12-17T13:12:35.227Z,74.10
2018-12-17T13:15:03.727Z,58.70
2018-12-17T13:17:31.852Z,74.00
2018-12-17T13:19:59.966Z,61.23
2018-12-17T13:22:29.140Z,52.63
2018-12-17T13:25:12.095Z,48.93
2018-12-17T13:27:40.191Z,51.37
2018-12-17T13:30:10.498Z,49.77
2018-12-17T13:32:38.641Z,52.40
2018-12-17T13:35:10.201Z,51.70
2018-12-17T13:37:44.671Z,46.97
2018-12-17T13:40:12.793Z,42.83
2018-12-17T13:42:40.883Z,50.17
2018-12-17T13:45:09.155Z,45.45
2018-12-17T13:47:37.229Z,47.37
2018-12-17T13:50:11.885Z,49.65
2018-12-17T13:52:46.355Z,49.73
2018-12-17T13:55:15.824Z,55.67
2018-12-17T13:57:44.503Z,53.07
2018-12-17T14:00:15.107Z,49.40
2018-12-17T14:02:44.070Z,53.93
2018-12-17T14:05:12.201Z,57.93
2018-12-17T14:07:40.315Z,68.70
2018-12-17T14:10:15.529Z,107.20
2018-12-17T14:12:43.703Z,159.60
2018-12-17T14:15:11.804Z,63.23
2018-12-17T14:17:44.230Z,63.83
2018-12-17T14:22:53.929Z,53.23
2018-12-17T14:25:22.056Z,60.00
2018-12-17T14:27:54.624Z,51.90
2018-12-17T14:30:26.901Z,53.03
2018-12-17T14:32:55.036Z,45.63
2018-12-17T14:35:23.122Z,47.70
2018-12-17T14:37:56.576Z,47.40
2018-12-17T14:40:25.709Z,51.60
2018-12-17T14:42:54.279Z,46.47
2018-12-17T14:45:24.524Z,59.50
2018-12-17T14:47:54.305Z,53.50
2018-12-17T14:50:22.392Z,47.57
2018-12-17T14:52:51.086Z,48.63
2018-12-17T14:55:19.662Z,44.97
2018-12-17T14:57:48.289Z,55.07
2018-12-17T15:00:26.528Z,57.13
2018-12-17T15:02:54.762Z,49.60
2018-12-17T15:05:22.930Z,49.20
2018-12-17T15:07:51.062Z,64.83
2018-12-17T15:10:19.155Z,53.67
2018-12-17T15:12:47.251Z,56.07
2018-12-17T15:15:15.763Z,52.80
2018-12-17T15:17:43.926Z,59.67
2018-12-17T15:20:12.072Z,61.60
2018-12-17T15:22:40.235Z,55.80
2018-12-17T15:25:08.902Z,69.07
2018-12-17T15:27:37.088Z,68.20
2018-12-17T15:30:06.536Z,71.37
2018-12-17T15:32:35.246Z,67.77
2018-12-17T15:35:03.410Z,60.57
2018-12-17T15:37:31.549Z,58.10
2018-12-17T15:39:59.671Z,69.30
2018-12-17T15:42:27.797Z,57.67
2018-12-17T15:44:55.964Z,65.60
2018-12-17T15:47:24.687Z,57.70
2018-12-17T15:49:52.838Z,80.80
2018-12-17T15:52:21.204Z,76.43
2018-12-17T15:54:49.839Z,71.33
2018-12-17T15:57:17.970Z,78.20
2018-12-17T15:59:47.558Z,68.67
2018-12-17T16:02:15.732Z,69.10
2018-12-17T16:04:44.816Z,57.23
2018-12-17T16:07:12.935Z,65.40
2018-12-17T16:09:41.007Z,58.00
2018-12-17T16:12:09.349Z,56.98
2018-12-17T16:14:37.482Z,59.33
2018-12-17T16:17:16.711Z,54.65
2018-12-17T16:19:45.611Z,67.93
2018-12-17T16:22:13.770Z,70.73
2018-12-17T16:24:41.884Z,78.17
2018-12-17T16:27:10.094Z,64.97
2018-12-17T16:29:38.208Z,67.07
2018-12-17T16:32:06.317Z,72.20
2018-12-17T16:34:34.575Z,77.50
2018-12-17T16:37:03.361Z,87.80
2018-12-17T16:39:31.827Z,88.00
2018-12-17T16:42:00.003Z,100.60
2018-12-17T16:44:28.151Z,101.18
2018-12-17T16:46:56.320Z,102.73
2018-12-17T16:49:24.659Z,84.83
2018-12-17T16:51:53.497Z,69.73
2018-12-17T16:54:24.099Z,59.37
2018-12-17T16:56:52.488Z,60.80
2018-12-17T16:59:20.614Z,59.53
2018-12-17T17:01:48.740Z,64.20
2018-12-17T17:04:16.991Z,55.67
2018-12-17T17:06:45.171Z,56.30
2018-12-17T17:09:13.338Z,46.97
2018-12-17T17:11:41.467Z,57.00
2018-12-17T17:14:09.677Z,125.53
2018-12-17T17:16:37.955Z,47.63
2018-12-17T17:19:06.073Z,43.63
2018-12-17T17:21:35.284Z,40.57
2018-12-17T17:24:03.415Z,43.87
2018-12-17T17:26:31.500Z,41.73
2018-12-17T17:29:00.813Z,49.27
2018-12-17T17:31:29.432Z,48.60
2018-12-17T17:33:59.243Z,46.30
2018-12-17T17:36:28.924Z,60.03
2018-12-17T17:38:57.668Z,50.80
2018-12-17T17:41:27.737Z,70.00
2018-12-17T17:43:57.541Z,61.30
2018-12-17T17:46:26.902Z,63.37
2018-12-17T17:48:59.335Z,80.10
2018-12-17T17:51:28.793Z,72.37
2018-12-17T17:53:56.903Z,66.53
2018-12-17T17:56:25.019Z,58.20
2018-12-17T17:58:54.142Z,65.53
2018-12-17T18:01:22.320Z,59.83
2018-12-17T18:06:29.757Z,48.73
2018-12-17T18:08:57.887Z,57.43
2018-12-17T18:11:25.988Z,52.50
2018-12-17T18:13:54.919Z,50.20
2018-12-17T18:16:23.364Z,44.43
2018-12-17T18:18:51.598Z,43.40
2018-12-17T18:21:19.704Z,41.20
2018-12-17T18:23:47.818Z,40.03
2018-12-17T18:26:16.072Z,37.27
2018-12-17T18:28:48.086Z,34.80
2018-12-17T18:31:16.238Z,46.23
2018-12-17T18:33:45.408Z,38.73
2018-12-17T18:36:13.505Z,44.30
2018-12-17T18:38:41.608Z,47.20
2018-12-17T18:41:13.484Z,44.50
2018-12-17T18:43:42.360Z,49.50
2018-12-17T18:46:10.555Z,53.83
2018-12-17T18:48:38.652Z,46.60
2018-12-17T18:51:06.776Z,52.83
2018-12-17T18:53:34.951Z,55.87
2018-12-17T18:56:15.012Z,58.60
2018-12-17T18:58:43.114Z,58.03
2018-12-17T19:01:12.395Z,52.57
2018-12-17T19:03:41.043Z,48.90
2018-12-17T19:06:27.587Z,45.23
2018-12-17T19:08:55.806Z,54.43
2018-12-17T19:11:24.517Z,48.60
2018-12-17T19:13:52.608Z,44.70
2018-12-17T19:16:20.790Z,41.80
2018-12-17T19:18:48.914Z,42.10
2018-12-17T19:21:16.989Z,40.23
2018-12-17T19:23:45.086Z,42.87
2018-12-17T19:26:13.286Z,50.67
2018-12-17T19:28:41.363Z,47.40
2018-12-17T19:31:10.036Z,51.60
2018-12-17T19:33:38.103Z,50.90
2018-12-17T19:36:06.863Z,54.13
2018-12-17T19:38:35.078Z,51.02
2018-12-17T19:41:05.721Z,48.50
2018-12-17T19:43:33.882Z,44.93
2018-12-17T19:46:01.991Z,42.17
2018-12-17T19:48:30.113Z,44.50
2018-12-17T19:50:58.208Z,42.30
2018-12-17T19:53:26.290Z,48.13
2018-12-17T19:55:54.472Z,43.92
2018-12-17T19:58:22.548Z,46.07
2018-12-17T20:00:50.699Z,47.00
2018-12-17T20:03:19.071Z,44.53
2018-12-17T20:05:48.351Z,42.70
2018-12-17T20:08:16.461Z,47.53
2018-12-17T20:10:44.647Z,48.10
2018-12-17T20:13:12.727Z,42.37
2018-12-17T20:15:41.629Z,42.50
2018-12-17T20:18:09.908Z,41.58
2018-12-17T20:20:38.043Z,42.03
2018-12-17T20:23:06.138Z,41.28
2018-12-17T20:25:34.362Z,45.57
2018-12-17T20:28:03.528Z,36.87
2018-12-17T20:30:31.695Z,43.20
2018-12-17T20:32:59.827Z,37.50
2018-12-17T20:35:27.931Z,40.23
2018-12-17T20:37:56.017Z,35.80
2018-12-17T20:40:24.155Z,39.03
2018-12-17T20:42:52.787Z,40.50
2018-12-17T20:45:20.941Z,39.18
2018-12-17T20:47:49.123Z,43.93
2018-12-17T20:50:17.238Z,49.33
2018-12-17T20:52:45.414Z,41.70
2018-12-17T20:55:13.606Z,47.40
2018-12-17T20:57:41.713Z,57.23
2018-12-17T21:00:10.929Z,52.30
2018-12-17T21:02:39.020Z,47.03
2018-12-17T21:05:07.145Z,46.77
2018-12-17T21:07:35.339Z,49.77
2018-12-17T21:10:04.640Z,51.83
2018-12-17T21:12:32.807Z,52.87
2018-12-17T21:15:01.520Z,44.63
2018-12-17T21:17:31.069Z,38.10
2018-12-17T21:19:59.543Z,37.85
2018-12-17T21:22:27.624Z,39.77
2018-12-17T21:24:55.734Z,41.37
2018-12-17T21:27:23.859Z,39.27
2018-12-17T21:29:51.939Z,44.77
2018-12-17T21:32:20.040Z,54.13
2018-12-17T21:34:48.152Z,46.37
2018-12-17T21:37:16.346Z,59.30
2018-12-17T21:39:45.257Z,59.20
2018-12-17T21:42:13.385Z,46.73
2018-12-17T21:44:41.507Z,51.68
2018-12-17T21:47:09.748Z,51.10
2018-12-17T21:49:37.832Z,53.63
2018-12-17T21:52:07.415Z,66.80
2018-12-17T21:54:35.540Z,80.47
2018-12-17T21:57:03.627Z,101.70
2018-12-17T21:59:31.703Z,68.40
2018-12-17T22:01:59.974Z,60.97
2018-12-17T22:04:28.105Z,60.10
2018-12-17T22:06:56.215Z,51.53
2018-12-17T22:09:24.342Z,56.00
2018-12-17T22:11:52.439Z,43.83
2018-12-17T22:14:21.663Z,45.13
2018-12-17T22:16:49.827Z,43.33
2018-12-17T22:19:17.957Z,41.67
2018-12-17T22:21:46.074Z,38.63
2018-12-17T22:24:14.179Z,43.27
2018-12-17T22:26:42.420Z,35.57
2018-12-17T22:29:11.045Z,38.45
2018-12-17T22:31:39.182Z,37.95
2018-12-17T22:34:07.263Z,38.07
2018-12-17T22:36:35.410Z,39.40
2018-12-17T22:39:05.276Z,30.83
2018-12-17T22:41:33.806Z,33.07
2018-12-17T22:44:02.026Z,29.75
2018-12-17T22:46:30.269Z,35.43
2018-12-17T22:48:58.351Z,36.40
2018-12-17T22:51:26.454Z,32.30
2018-12-17T22:53:54.591Z,32.50
2018-12-17T22:56:24.389Z,30.47
2018-12-17T22:58:52.474Z,30.67
2018-12-17T23:01:20.676Z,29.77
2018-12-17T23:03:48.877Z,34.30
2018-12-17T23:06:16.984Z,32.40
2018-12-17T23:08:56.427Z,35.00
2018-12-17T23:11:40.232Z,32.53
2018-12-17T23:14:20.925Z,37.93
2018-12-17T23:17:00.515Z,39.77
2018-12-17T23:19:28.398Z,42.90
2018-12-17T23:21:56.557Z,41.10
2018-12-17T23:24:24.787Z,41.17
2018-12-17T23:26:52.953Z,38.27
2018-12-17T23:29:21.435Z,34.13
2018-12-17T23:31:53.347Z,43.60
2018-12-17T23:34:21.471Z,42.57
2018-12-17T23:36:49.692Z,36.90
2018-12-17T23:39:18.490Z,38.57
2018-12-17T23:41:46.852Z,137.97
2018-12-17T23:44:15.280Z,72.53
2018-12-17T23:46:43.950Z,75.67
2018-12-17T23:49:12.116Z,66.77
2018-12-17T23:51:40.239Z,55.80
2018-12-17T23:54:08.876Z,51.47
2018-12-17T23:56:36.961Z,40.37
2018-12-17T23:59:06.010Z,44.13
